createdAt,value
2022-12-06T00:03:08.968Z,6.24
2022-12-06T00:08:31.050Z,6.21
2022-12-06T00:14:04.423Z,6.21
2022-12-06T00:19:26.441Z,6.16
2022-12-06T00:24:48.272Z,6.13
2022-12-06T00:30:10.617Z,6.08
2022-12-06T00:35:32.534Z,5.99
2022-12-06T00:41:01.798Z,5.92
2022-12-06T00:46:26.433Z,5.89
2022-12-06T00:51:48.555Z,5.84
2022-12-06T00:57:10.584Z,5.77
2022-12-06T01:02:32.114Z,5.79
2022-12-06T01:07:54.508Z,5.72
2022-12-06T01:13:16.167Z,5.62
2022-12-06T01:18:38.584Z,5.56
2022-12-06T01:24:00.529Z,5.54
2022-12-06T01:29:22.655Z,5.50
2022-12-06T01:34:45.390Z,5.43
2022-12-06T01:40:08.025Z,5.41
2022-12-06T01:45:30.152Z,5.40
2022-12-06T01:50:56.703Z,5.35
2022-12-06T01:56:19.329Z,5.35
2022-12-06T02:01:41.860Z,5.34
2022-12-06T02:07:04.091Z,5.33
2022-12-06T02:12:25.718Z,5.33
2022-12-06T02:17:57.404Z,5.31
2022-12-06T02:23:54.775Z,5.31
2022-12-06T02:29:51.288Z,5.27
2022-12-06T02:35:19.728Z,5.25
2022-12-06T02:40:49.497Z,5.30
2022-12-06T02:46:12.474Z,5.27
2022-12-06T02:51:36.366Z,5.22
2022-12-06T02:56:58.192Z,5.22
2022-12-06T03:02:20.389Z,5.15
2022-12-06T03:07:46.143Z,5.15
2022-12-06T03:13:30.274Z,5.12
2022-12-06T03:19:03.870Z,5.10
2022-12-06T03:24:28.182Z,5.24
2022-12-06T03:29:53.925Z,5.47
2022-12-06T03:35:20.877Z,5.61
2022-12-06T03:40:45.811Z,5.66
2022-12-06T03:46:12.734Z,5.68
2022-12-06T03:51:36.492Z,5.67
2022-12-06T03:56:58.325Z,5.85
2022-12-06T04:02:19.952Z,5.95
2022-12-06T04:07:42.029Z,5.98
2022-12-06T04:13:06.030Z,6.09
2022-12-06T04:18:28.600Z,6.26
2022-12-06T04:23:52.003Z,6.38
2022-12-06T04:29:32.689Z,6.42
2022-12-06T04:35:13.235Z,6.45
2022-12-06T04:40:35.138Z,6.42
2022-12-06T04:45:57.039Z,6.41
2022-12-06T04:51:20.268Z,6.36
2022-12-06T04:56:41.796Z,6.30
2022-12-06T05:02:03.440Z,6.33
2022-12-06T05:07:25.454Z,6.30
2022-12-06T05:12:47.081Z,6.28
2022-12-06T05:18:08.909Z,6.25
2022-12-06T05:23:30.941Z,6.25
2022-12-06T05:28:53.985Z,6.14
2022-12-06T05:34:16.014Z,6.06
2022-12-06T05:39:37.528Z,6.16
2022-12-06T05:44:59.459Z,6.16
2022-12-06T05:50:21.054Z,6.02
2022-12-06T05:55:44.020Z,6.13
2022-12-06T06:01:06.915Z,6.17
2022-12-06T06:06:28.984Z,5.96
2022-12-06T06:11:51.014Z,6.07
2022-12-06T06:17:13.644Z,6.20
2022-12-06T06:22:36.978Z,6.09
2022-12-06T06:27:58.708Z,6.22
2022-12-06T06:33:21.439Z,6.08
2022-12-06T06:38:43.296Z,5.78
2022-12-06T06:44:05.198Z,5.88
2022-12-06T06:49:27.059Z,6.13
2022-12-06T06:54:49.085Z,6.08
2022-12-06T07:00:11.841Z,5.87
2022-12-06T07:05:33.719Z,5.69
2022-12-06T07:10:55.952Z,5.56
2022-12-06T07:16:18.463Z,5.46
2022-12-06T07:21:40.616Z,5.51
2022-12-06T07:27:02.840Z,5.59
2022-12-06T07:32:24.870Z,5.57
2022-12-06T07:37:47.518Z,5.56
2022-12-06T07:43:29.206Z,5.61
2022-12-06T07:48:51.483Z,5.59
2022-12-06T07:54:14.264Z,5.64
2022-12-06T07:59:36.097Z,5.91
2022-12-06T08:04:58.832Z,6.11
2022-12-06T08:10:21.084Z,5.96
2022-12-06T08:15:42.706Z,5.95
2022-12-06T08:21:04.976Z,6.04
2022-12-06T08:26:27.042Z,6.16
2022-12-06T08:31:48.981Z,6.22
2022-12-06T08:37:12.108Z,6.33
2022-12-06T08:42:34.136Z,6.22
2022-12-06T08:47:56.167Z,6.17
2022-12-06T08:53:18.203Z,6.23
2022-12-06T08:58:40.225Z,6.40
2022-12-06T09:04:03.309Z,6.48
2022-12-06T09:09:25.589Z,6.57
2022-12-06T09:14:47.217Z,6.71
2022-12-06T09:20:10.239Z,6.75
2022-12-06T09:25:32.483Z,6.83
2022-12-06T09:30:54.230Z,6.80
2022-12-06T09:36:26.785Z,6.85
2022-12-06T09:42:14.928Z,6.77
2022-12-06T09:47:46.058Z,6.77
2022-12-06T09:53:20.665Z,6.73
2022-12-06T09:59:10.659Z,6.77
2022-12-06T10:04:42.434Z,6.77
2022-12-06T10:10:13.348Z,6.78
2022-12-06T10:15:44.146Z,6.74
2022-12-06T10:21:38.232Z,6.62
2022-12-06T10:27:10.126Z,6.52
2022-12-06T10:32:54.863Z,6.49
2022-12-06T10:38:22.654Z,6.42
2022-12-06T10:43:44.741Z,6.33
2022-12-06T10:49:27.944Z,6.23
2022-12-06T10:55:02.722Z,6.18
2022-12-06T11:00:26.558Z,6.14
2022-12-06T11:05:53.803Z,6.10
2022-12-06T11:11:18.947Z,6.11
2022-12-06T11:16:54.744Z,6.10
2022-12-06T11:22:32.270Z,6.16
2022-12-06T11:28:26.950Z,6.07
2022-12-06T11:33:48.835Z,6.04
2022-12-06T11:39:13.820Z,6.03
2022-12-06T11:44:50.128Z,6.04
2022-12-06T11:50:17.313Z,5.92
2022-12-06T11:55:47.668Z,5.75
2022-12-06T12:01:13.612Z,5.66
2022-12-06T12:06:36.983Z,5.67
2022-12-06T12:12:05.797Z,5.65
2022-12-06T12:17:31.680Z,5.67
2022-12-06T12:23:09.667Z,5.63
2022-12-06T12:28:33.100Z,5.57
2022-12-06T12:34:20.829Z,5.58
2022-12-06T12:39:51.925Z,5.64
2022-12-06T12:45:19.630Z,5.61
2022-12-06T12:50:52.831Z,5.55
2022-12-06T12:56:22.035Z,5.61
2022-12-06T13:01:48.357Z,5.56
2022-12-06T13:07:10.229Z,5.49
2022-12-06T13:12:51.025Z,5.41
2022-12-06T13:18:58.214Z,5.41
2022-12-06T13:24:26.735Z,5.34
2022-12-06T13:30:17.699Z,5.24
2022-12-06T13:35:43.577Z,5.13
2022-12-06T13:41:36.109Z,5.09
2022-12-06T13:47:26.528Z,4.99
2022-12-06T13:52:48.334Z,4.94
2022-12-06T13:58:10.164Z,4.89
2022-12-06T14:03:31.699Z,4.90
2022-12-06T14:08:54.720Z,4.87
2022-12-06T14:14:20.295Z,4.82
2022-12-06T14:19:45.413Z,4.81
2022-12-06T14:25:19.233Z,4.77
2022-12-06T14:30:43.862Z,4.69
2022-12-06T14:36:14.178Z,4.70
2022-12-06T14:42:00.191Z,4.65
2022-12-06T14:47:23.341Z,4.69
2022-12-06T14:52:56.747Z,4.71
2022-12-06T14:58:22.561Z,4.65
2022-12-06T15:03:44.757Z,4.61
2022-12-06T15:09:14.723Z,4.61
2022-12-06T15:14:39.565Z,4.58
2022-12-06T15:20:08.931Z,4.57
2022-12-06T15:25:30.762Z,4.54
2022-12-06T15:30:53.220Z,4.42
2022-12-06T15:36:24.484Z,4.29
2022-12-06T15:41:46.675Z,4.22
2022-12-06T15:47:11.009Z,4.17
2022-12-06T15:52:32.854Z,4.12
2022-12-06T15:57:54.767Z,4.16
2022-12-06T16:03:16.720Z,4.19
2022-12-06T16:08:39.028Z,4.14
2022-12-06T16:14:00.813Z,4.08
2022-12-06T16:19:22.451Z,4.09
2022-12-06T16:24:46.252Z,4.15
2022-12-06T16:30:12.167Z,4.19
2022-12-06T16:35:34.294Z,4.16
2022-12-06T16:40:59.679Z,4.12
2022-12-06T16:46:28.476Z,4.06
2022-12-06T16:51:51.425Z,3.92
2022-12-06T16:57:14.639Z,3.90
2022-12-06T17:02:36.515Z,3.91
2022-12-06T17:07:58.757Z,3.92
2022-12-06T17:13:20.343Z,3.95
2022-12-06T17:18:41.978Z,4.00
2022-12-06T17:24:04.677Z,4.00
2022-12-06T17:29:26.933Z,3.97
2022-12-06T17:34:48.863Z,3.84
2022-12-06T17:40:11.273Z,3.74
2022-12-06T17:45:32.999Z,3.59
2022-12-06T17:50:54.933Z,3.46
2022-12-06T17:56:30.330Z,3.37
2022-12-06T18:07:35.508Z,3.28
2022-12-06T18:13:01.314Z,3.26
2022-12-06T18:18:24.540Z,3.25
2022-12-06T18:24:13.164Z,3.16
2022-12-06T18:29:29.177Z,3.12
2022-12-06T18:34:51.301Z,3.13
2022-12-06T18:40:13.132Z,3.16
2022-12-06T18:45:35.327Z,3.15
2022-12-06T18:50:57.712Z,3.14
2022-12-06T18:56:22.431Z,3.10
2022-12-06T19:01:45.041Z,3.00
2022-12-06T19:07:06.912Z,2.98
2022-12-06T19:12:28.821Z,2.96
2022-12-06T19:17:51.755Z,3.04
2022-12-06T19:23:14.052Z,3.07
2022-12-06T19:28:38.544Z,3.09
2022-12-06T19:34:00.891Z,3.04
2022-12-06T19:39:24.196Z,3.02
2022-12-06T19:44:46.124Z,3.01
2022-12-06T19:50:08.760Z,3.04
2022-12-06T19:55:31.174Z,3.08
2022-12-06T20:00:53.565Z,3.10
2022-12-06T20:06:21.427Z,3.11
2022-12-06T20:12:02.935Z,3.16
2022-12-06T20:17:25.162Z,3.14
2022-12-06T20:22:47.523Z,3.16
2022-12-06T20:28:13.474Z,3.15
2022-12-06T20:33:35.595Z,3.06
2022-12-06T20:38:58.137Z,3.01
2022-12-06T20:44:20.899Z,2.94
2022-12-06T20:49:43.189Z,2.89
2022-12-06T20:55:05.921Z,2.83
2022-12-06T21:00:27.951Z,2.74
2022-12-06T21:05:55.138Z,2.77
2022-12-06T21:11:23.342Z,2.74
2022-12-06T21:16:45.782Z,2.75
2022-12-06T21:22:09.419Z,2.78
2022-12-06T21:27:31.278Z,2.75
2022-12-06T21:32:52.975Z,2.74
2022-12-06T21:38:16.007Z,2.71
2022-12-06T21:43:38.438Z,2.69
2022-12-06T21:49:00.970Z,2.67
2022-12-06T21:54:22.706Z,2.63
2022-12-06T21:59:44.530Z,2.62
2022-12-06T22:05:06.358Z,2.65
2022-12-06T22:10:28.388Z,2.62
2022-12-06T22:15:50.282Z,2.61
2022-12-06T22:21:18.471Z,2.64
2022-12-06T22:26:40.002Z,2.63
2022-12-06T22:32:01.799Z,2.61
2022-12-06T22:37:28.346Z,2.63
2022-12-06T22:42:50.601Z,2.67
2022-12-06T22:48:12.230Z,2.66
2022-12-06T22:53:34.058Z,2.66
2022-12-06T22:58:58.103Z,2.69
2022-12-06T23:04:20.083Z,2.76
2022-12-06T23:09:42.456Z,2.80
2022-12-06T23:15:05.325Z,2.82
2022-12-06T23:20:26.918Z,2.84
2022-12-06T23:25:49.198Z,2.83
2022-12-06T23:31:13.554Z,2.82
2022-12-06T23:36:36.368Z,2.83
2022-12-06T23:41:59.253Z,2.87
2022-12-06T23:47:21.078Z,2.92
2022-12-06T23:52:43.010Z,2.93
2022-12-06T23:58:05.091Z,2.91
